sensor_id;sensor_type;location;lat;lon;timestamp;P1;durP1;ratioP1;P2;durP2;ratioP2
78207;SDS011;67481;50.244;18.288;2023-04-08T00:01:05;33.97;;;13.88;;
78207;SDS011;67481;50.244;18.288;2023-04-08T00:03:50;36.88;;;15.52;;
78207;SDS011;67481;50.244;18.288;2023-04-08T00:06:36;38.80;;;15.05;;
78207;SDS011;67481;50.244;18.288;2023-04-08T00:09:23;37.53;;;15.32;;
78207;SDS011;67481;50.244;18.288;2023-04-08T00:12:09;41.20;;;15.63;;
78207;SDS011;67481;50.244;18.288;2023-04-08T00:14:54;42.47;;;15.73;;
78207;SDS011;67481;50.244;18.288;2023-04-08T00:17:40;25.23;;;10.80;;
78207;SDS011;67481;50.244;18.288;2023-04-08T00:20:25;46.85;;;17.30;;
78207;SDS011;67481;50.244;18.288;2023-04-08T00:23:10;49.28;;;17.52;;
78207;SDS011;67481;50.244;18.288;2023-04-08T00:25:56;50.85;;;20.05;;
78207;SDS011;67481;50.244;18.288;2023-04-08T00:28:41;42.60;;;16.52;;
78207;SDS011;67481;50.244;18.288;2023-04-08T00:31:27;43.88;;;17.85;;
78207;SDS011;67481;50.244;18.288;2023-04-08T00:34:13;31.75;;;13.27;;
78207;SDS011;67481;50.244;18.288;2023-04-08T00:36:58;32.20;;;12.90;;
78207;SDS011;67481;50.244;18.288;2023-04-08T00:39:45;49.22;;;19.30;;
78207;SDS011;67481;50.244;18.288;2023-04-08T00:42:31;71.35;;;24.92;;
78207;SDS011;67481;50.244;18.288;2023-04-08T00:45:17;62.75;;;23.15;;
78207;SDS011;67481;50.244;18.288;2023-04-08T00:48:03;38.13;;;14.05;;
78207;SDS011;67481;50.244;18.288;2023-04-08T00:50:49;47.60;;;17.92;;
78207;SDS011;67481;50.244;18.288;2023-04-08T00:53:35;34.00;;;13.57;;
78207;SDS011;67481;50.244;18.288;2023-04-08T00:56:21;42.75;;;16.52;;
78207;SDS011;67481;50.244;18.288;2023-04-08T00:59:07;39.17;;;13.73;;
78207;SDS011;67481;50.244;18.288;2023-04-08T01:05:07;29.98;;;11.90;;
78207;SDS011;67481;50.244;18.288;2023-04-08T01:07:57;28.17;;;9.98;;
78207;SDS011;67481;50.244;18.288;2023-04-08T01:10:44;24.55;;;10.15;;
78207;SDS011;67481;50.244;18.288;2023-04-08T01:13:33;26.40;;;9.63;;
78207;SDS011;67481;50.244;18.288;2023-04-08T01:16:21;27.83;;;11.00;;
78207;SDS011;67481;50.244;18.288;2023-04-08T01:19:08;32.42;;;12.50;;
78207;SDS011;67481;50.244;18.288;2023-04-08T01:21:56;29.73;;;10.75;;
78207;SDS011;67481;50.244;18.288;2023-04-08T01:24:50;33.13;;;12.30;;
78207;SDS011;67481;50.244;18.288;2023-04-08T01:27:52;25.10;;;9.27;;
78207;SDS011;67481;50.244;18.288;2023-04-08T01:30:41;34.38;;;12.35;;
78207;SDS011;67481;50.244;18.288;2023-04-08T01:33:28;35.00;;;14.23;;
78207;SDS011;67481;50.244;18.288;2023-04-08T01:36:13;32.72;;;12.48;;
78207;SDS011;67481;50.244;18.288;2023-04-08T01:39:00;38.08;;;12.80;;
78207;SDS011;67481;50.244;18.288;2023-04-08T01:41:47;30.48;;;11.23;;
78207;SDS011;67481;50.244;18.288;2023-04-08T01:44:32;30.25;;;11.75;;
78207;SDS011;67481;50.244;18.288;2023-04-08T01:47:20;31.52;;;11.00;;
78207;SDS011;67481;50.244;18.288;2023-04-08T01:50:06;26.77;;;10.07;;
78207;SDS011;67481;50.244;18.288;2023-04-08T01:52:53;35.47;;;12.88;;
78207;SDS011;67481;50.244;18.288;2023-04-08T01:55:39;33.67;;;12.65;;
78207;SDS011;67481;50.244;18.288;2023-04-08T01:58:25;27.13;;;10.00;;
78207;SDS011;67481;50.244;18.288;2023-04-08T02:01:16;31.38;;;11.25;;
78207;SDS011;67481;50.244;18.288;2023-04-08T02:04:06;34.28;;;13.20;;
78207;SDS011;67481;50.244;18.288;2023-04-08T02:06:52;33.75;;;11.60;;
78207;SDS011;67481;50.244;18.288;2023-04-08T02:09:38;32.03;;;13.23;;
78207;SDS011;67481;50.244;18.288;2023-04-08T02:12:23;32.80;;;12.27;;
78207;SDS011;67481;50.244;18.288;2023-04-08T02:15:10;36.28;;;12.27;;
78207;SDS011;67481;50.244;18.288;2023-04-08T02:18:03;27.83;;;11.88;;
78207;SDS011;67481;50.244;18.288;2023-04-08T02:20:53;28.35;;;11.23;;
78207;SDS011;67481;50.244;18.288;2023-04-08T02:23:44;31.25;;;11.77;;
78207;SDS011;67481;50.244;18.288;2023-04-08T02:26:32;19.25;;;7.70;;
78207;SDS011;67481;50.244;18.288;2023-04-08T02:29:18;23.67;;;9.25;;
78207;SDS011;67481;50.244;18.288;2023-04-08T02:32:03;28.20;;;11.05;;
78207;SDS011;67481;50.244;18.288;2023-04-08T02:34:49;29.92;;;11.77;;
78207;SDS011;67481;50.244;18.288;2023-04-08T02:37:35;24.42;;;9.32;;
78207;SDS011;67481;50.244;18.288;2023-04-08T02:40:21;29.70;;;11.30;;
78207;SDS011;67481;50.244;18.288;2023-04-08T02:43:07;29.33;;;10.90;;
78207;SDS011;67481;50.244;18.288;2023-04-08T02:45:52;29.38;;;12.10;;
78207;SDS011;67481;50.244;18.288;2023-04-08T02:48:37;29.17;;;11.10;;
78207;SDS011;67481;50.244;18.288;2023-04-08T02:51:23;31.15;;;12.52;;
78207;SDS011;67481;50.244;18.288;2023-04-08T02:54:08;23.70;;;10.98;;
78207;SDS011;67481;50.244;18.288;2023-04-08T02:56:53;26.55;;;10.95;;
78207;SDS011;67481;50.244;18.288;2023-04-08T02:59:38;26.98;;;10.85;;
78207;SDS011;67481;50.244;18.288;2023-04-08T03:02:25;25.80;;;10.15;;
78207;SDS011;67481;50.244;18.288;2023-04-08T03:05:11;24.00;;;10.85;;
78207;SDS011;67481;50.244;18.288;2023-04-08T03:07:56;21.88;;;9.25;;
78207;SDS011;67481;50.244;18.288;2023-04-08T03:10:41;22.20;;;9.25;;
78207;SDS011;67481;50.244;18.288;2023-04-08T03:13:27;19.58;;;8.77;;
78207;SDS011;67481;50.244;18.288;2023-04-08T03:16:13;25.77;;;11.35;;
78207;SDS011;67481;50.244;18.288;2023-04-08T03:18:59;26.08;;;9.35;;
78207;SDS011;67481;50.244;18.288;2023-04-08T03:21:45;22.05;;;9.80;;
78207;SDS011;67481;50.244;18.288;2023-04-08T03:24:30;22.30;;;9.60;;
78207;SDS011;67481;50.244;18.288;2023-04-08T03:27:16;23.35;;;9.57;;
78207;SDS011;67481;50.244;18.288;2023-04-08T03:30:01;24.92;;;10.85;;
78207;SDS011;67481;50.244;18.288;2023-04-08T03:32:47;24.90;;;11.15;;
78207;SDS011;67481;50.244;18.288;2023-04-08T03:35:32;22.45;;;10.02;;
78207;SDS011;67481;50.244;18.288;2023-04-08T03:38:18;25.73;;;10.30;;
78207;SDS011;67481;50.244;18.288;2023-04-08T03:41:03;27.23;;;10.77;;
78207;SDS011;67481;50.244;18.288;2023-04-08T03:43:49;25.40;;;10.35;;
78207;SDS011;67481;50.244;18.288;2023-04-08T03:46:35;24.98;;;10.57;;
78207;SDS011;67481;50.244;18.288;2023-04-08T03:49:20;24.17;;;9.82;;
78207;SDS011;67481;50.244;18.288;2023-04-08T03:52:05;22.02;;;9.35;;
78207;SDS011;67481;50.244;18.288;2023-04-08T03:54:51;22.20;;;9.05;;
78207;SDS011;67481;50.244;18.288;2023-04-08T03:57:36;27.52;;;10.45;;
78207;SDS011;67481;50.244;18.288;2023-04-08T04:00:22;26.33;;;11.43;;
78207;SDS011;67481;50.244;18.288;2023-04-08T04:03:07;24.13;;;10.52;;
78207;SDS011;67481;50.244;18.288;2023-04-08T04:05:54;21.02;;;10.10;;
78207;SDS011;67481;50.244;18.288;2023-04-08T04:08:40;21.38;;;8.93;;
78207;SDS011;67481;50.244;18.288;2023-04-08T04:11:25;26.10;;;11.98;;
78207;SDS011;67481;50.244;18.288;2023-04-08T04:14:11;23.80;;;9.38;;
78207;SDS011;67481;50.244;18.288;2023-04-08T04:16:56;24.75;;;9.45;;
78207;SDS011;67481;50.244;18.288;2023-04-08T04:19:42;24.98;;;10.25;;
78207;SDS011;67481;50.244;18.288;2023-04-08T04:22:27;21.55;;;9.63;;
78207;SDS011;67481;50.244;18.288;2023-04-08T04:25:13;23.52;;;10.00;;
78207;SDS011;67481;50.244;18.288;2023-04-08T04:27:58;24.63;;;11.02;;
78207;SDS011;67481;50.244;18.288;2023-04-08T04:30:43;25.35;;;10.82;;
78207;SDS011;67481;50.244;18.288;2023-04-08T04:33:30;28.92;;;11.75;;
78207;SDS011;67481;50.244;18.288;2023-04-08T04:36:16;28.67;;;12.18;;
78207;SDS011;67481;50.244;18.288;2023-04-08T04:39:01;27.70;;;12.73;;
78207;SDS011;67481;50.244;18.288;2023-04-08T04:41:47;29.00;;;13.48;;
78207;SDS011;67481;50.244;18.288;2023-04-08T04:44:33;23.42;;;9.93;;
78207;SDS011;67481;50.244;18.288;2023-04-08T04:47:18;28.23;;;12.15;;
78207;SDS011;67481;50.244;18.288;2023-04-08T04:50:05;26.27;;;12.23;;
78207;SDS011;67481;50.244;18.288;2023-04-08T04:52:50;32.83;;;14.63;;
78207;SDS011;67481;50.244;18.288;2023-04-08T04:55:36;26.38;;;11.65;;
78207;SDS011;67481;50.244;18.288;2023-04-08T04:58:23;30.20;;;12.60;;
78207;SDS011;67481;50.244;18.288;2023-04-08T05:01:08;27.58;;;13.52;;
78207;SDS011;67481;50.244;18.288;2023-04-08T05:03:54;37.63;;;16.90;;
78207;SDS011;67481;50.244;18.288;2023-04-08T05:06:40;29.70;;;15.35;;
78207;SDS011;67481;50.244;18.288;2023-04-08T05:09:26;30.90;;;14.88;;
78207;SDS011;67481;50.244;18.288;2023-04-08T05:12:11;24.10;;;10.38;;
78207;SDS011;67481;50.244;18.288;2023-04-08T05:14:57;31.35;;;14.30;;
78207;SDS011;67481;50.244;18.288;2023-04-08T05:17:43;24.88;;;11.15;;
78207;SDS011;67481;50.244;18.288;2023-04-08T05:20:29;30.77;;;13.50;;
78207;SDS011;67481;50.244;18.288;2023-04-08T05:23:15;35.00;;;15.88;;
78207;SDS011;67481;50.244;18.288;2023-04-08T05:26:01;32.20;;;13.95;;
78207;SDS011;67481;50.244;18.288;2023-04-08T05:28:48;37.17;;;14.55;;
78207;SDS011;67481;50.244;18.288;2023-04-08T05:31:35;27.42;;;13.07;;
78207;SDS011;67481;50.244;18.288;2023-04-08T05:34:21;31.05;;;13.85;;
78207;SDS011;67481;50.244;18.288;2023-04-08T05:37:07;24.90;;;10.63;;
78207;SDS011;67481;50.244;18.288;2023-04-08T05:39:52;28.33;;;12.50;;
78207;SDS011;67481;50.244;18.288;2023-04-08T05:42:38;23.70;;;10.18;;
78207;SDS011;67481;50.244;18.288;2023-04-08T05:45:23;19.23;;;9.30;;
78207;SDS011;67481;50.244;18.288;2023-04-08T05:48:09;23.75;;;10.77;;
78207;SDS011;67481;50.244;18.288;2023-04-08T05:50:54;25.27;;;11.73;;
78207;SDS011;67481;50.244;18.288;2023-04-08T05:53:41;26.75;;;10.73;;
78207;SDS011;67481;50.244;18.288;2023-04-08T05:56:26;20.27;;;9.50;;
78207;SDS011;67481;50.244;18.288;2023-04-08T05:59:11;19.77;;;7.57;;
78207;SDS011;67481;50.244;18.288;2023-04-08T06:01:57;19.92;;;8.32;;
78207;SDS011;67481;50.244;18.288;2023-04-08T06:04:42;21.52;;;8.73;;
78207;SDS011;67481;50.244;18.288;2023-04-08T06:07:28;26.10;;;10.95;;
78207;SDS011;67481;50.244;18.288;2023-04-08T06:10:15;17.08;;;7.22;;
78207;SDS011;67481;50.244;18.288;2023-04-08T06:13:00;28.23;;;11.10;;
78207;SDS011;67481;50.244;18.288;2023-04-08T06:15:46;23.38;;;8.80;;
78207;SDS011;67481;50.244;18.288;2023-04-08T06:18:33;20.23;;;8.35;;
78207;SDS011;67481;50.244;18.288;2023-04-08T06:21:18;16.63;;;6.97;;
78207;SDS011;67481;50.244;18.288;2023-04-08T06:24:04;28.35;;;11.98;;
78207;SDS011;67481;50.244;18.288;2023-04-08T06:26:49;26.38;;;10.60;;
78207;SDS011;67481;50.244;18.288;2023-04-08T06:29:36;24.17;;;9.48;;
78207;SDS011;67481;50.244;18.288;2023-04-08T06:32:21;23.58;;;9.90;;
78207;SDS011;67481;50.244;18.288;2023-04-08T06:35:07;18.42;;;7.45;;
78207;SDS011;67481;50.244;18.288;2023-04-08T06:37:52;25.27;;;11.95;;
78207;SDS011;67481;50.244;18.288;2023-04-08T06:40:41;24.17;;;9.10;;
78207;SDS011;67481;50.244;18.288;2023-04-08T06:43:26;24.15;;;10.68;;
78207;SDS011;67481;50.244;18.288;2023-04-08T06:46:12;26.48;;;11.63;;
78207;SDS011;67481;50.244;18.288;2023-04-08T06:48:58;23.17;;;11.35;;
78207;SDS011;67481;50.244;18.288;2023-04-08T06:51:44;18.10;;;8.88;;
78207;SDS011;67481;50.244;18.288;2023-04-08T06:54:29;24.15;;;11.90;;
78207;SDS011;67481;50.244;18.288;2023-04-08T06:57:15;25.00;;;9.85;;
78207;SDS011;67481;50.244;18.288;2023-04-08T07:00:00;25.60;;;10.38;;
78207;SDS011;67481;50.244;18.288;2023-04-08T07:02:46;21.25;;;9.82;;
78207;SDS011;67481;50.244;18.288;2023-04-08T07:05:36;21.60;;;7.00;;
78207;SDS011;67481;50.244;18.288;2023-04-08T07:08:22;19.10;;;8.30;;
78207;SDS011;67481;50.244;18.288;2023-04-08T07:11:08;24.95;;;10.57;;
78207;SDS011;67481;50.244;18.288;2023-04-08T07:13:53;20.27;;;8.65;;
78207;SDS011;67481;50.244;18.288;2023-04-08T07:16:38;25.90;;;10.43;;
78207;SDS011;67481;50.244;18.288;2023-04-08T07:19:24;19.52;;;9.20;;
78207;SDS011;67481;50.244;18.288;2023-04-08T07:22:10;26.52;;;10.93;;
78207;SDS011;67481;50.244;18.288;2023-04-08T07:24:56;16.85;;;7.70;;
78207;SDS011;67481;50.244;18.288;2023-04-08T07:27:41;23.80;;;9.73;;
78207;SDS011;67481;50.244;18.288;2023-04-08T07:30:26;21.88;;;8.93;;
78207;SDS011;67481;50.244;18.288;2023-04-08T07:33:11;28.63;;;10.57;;
78207;SDS011;67481;50.244;18.288;2023-04-08T07:35:57;15.68;;;7.97;;
78207;SDS011;67481;50.244;18.288;2023-04-08T07:41:55;24.67;;;10.15;;
78207;SDS011;67481;50.244;18.288;2023-04-08T07:44:41;27.67;;;11.20;;
78207;SDS011;67481;50.244;18.288;2023-04-08T07:47:26;25.90;;;10.38;;
78207;SDS011;67481;50.244;18.288;2023-04-08T07:50:12;23.52;;;9.75;;
78207;SDS011;67481;50.244;18.288;2023-04-08T07:52:57;18.95;;;8.02;;
78207;SDS011;67481;50.244;18.288;2023-04-08T07:55:43;31.25;;;14.80;;
78207;SDS011;67481;50.244;18.288;2023-04-08T07:58:28;24.13;;;10.02;;
78207;SDS011;67481;50.244;18.288;2023-04-08T08:01:17;20.20;;;8.88;;
78207;SDS011;67481;50.244;18.288;2023-04-08T08:04:04;22.55;;;10.43;;
78207;SDS011;67481;50.244;18.288;2023-04-08T08:06:50;26.25;;;10.77;;
78207;SDS011;67481;50.244;18.288;2023-04-08T08:09:35;19.73;;;8.82;;
78207;SDS011;67481;50.244;18.288;2023-04-08T08:12:20;25.80;;;11.30;;
78207;SDS011;67481;50.244;18.288;2023-04-08T08:15:06;27.48;;;12.05;;
78207;SDS011;67481;50.244;18.288;2023-04-08T08:17:52;16.50;;;7.30;;
78207;SDS011;67481;50.244;18.288;2023-04-08T08:20:37;28.17;;;11.38;;
78207;SDS011;67481;50.244;18.288;2023-04-08T08:23:23;23.25;;;10.30;;
78207;SDS011;67481;50.244;18.288;2023-04-08T08:26:08;35.40;;;15.18;;
78207;SDS011;67481;50.244;18.288;2023-04-08T08:28:54;30.10;;;12.98;;
78207;SDS011;67481;50.244;18.288;2023-04-08T08:31:40;24.67;;;10.60;;
78207;SDS011;67481;50.244;18.288;2023-04-08T08:34:26;22.80;;;9.60;;
78207;SDS011;67481;50.244;18.288;2023-04-08T08:37:12;25.15;;;10.38;;
78207;SDS011;67481;50.244;18.288;2023-04-08T08:39:57;24.35;;;10.25;;
78207;SDS011;67481;50.244;18.288;2023-04-08T08:42:48;22.35;;;10.85;;
78207;SDS011;67481;50.244;18.288;2023-04-08T08:45:40;36.53;;;13.02;;
78207;SDS011;67481;50.244;18.288;2023-04-08T08:48:26;25.92;;;11.23;;
78207;SDS011;67481;50.244;18.288;2023-04-08T08:51:11;24.02;;;10.40;;
78207;SDS011;67481;50.244;18.288;2023-04-08T08:54:00;25.45;;;11.07;;
78207;SDS011;67481;50.244;18.288;2023-04-08T08:56:46;23.42;;;9.10;;
78207;SDS011;67481;50.244;18.288;2023-04-08T08:59:33;23.70;;;10.23;;
78207;SDS011;67481;50.244;18.288;2023-04-08T09:02:28;20.35;;;8.85;;
78207;SDS011;67481;50.244;18.288;2023-04-08T09:05:16;15.60;;;6.00;;
78207;SDS011;67481;50.244;18.288;2023-04-08T09:08:02;14.07;;;7.68;;
78207;SDS011;67481;50.244;18.288;2023-04-08T09:10:47;22.65;;;10.27;;
78207;SDS011;67481;50.244;18.288;2023-04-08T09:13:34;21.95;;;9.90;;
78207;SDS011;67481;50.244;18.288;2023-04-08T09:16:20;19.85;;;8.70;;
78207;SDS011;67481;50.244;18.288;2023-04-08T09:19:08;25.05;;;10.60;;
78207;SDS011;67481;50.244;18.288;2023-04-08T09:22:07;19.73;;;8.63;;
78207;SDS011;67481;50.244;18.288;2023-04-08T09:24:54;24.05;;;9.75;;
78207;SDS011;67481;50.244;18.288;2023-04-08T09:27:40;21.33;;;8.60;;
78207;SDS011;67481;50.244;18.288;2023-04-08T09:30:25;23.50;;;9.27;;
78207;SDS011;67481;50.244;18.288;2023-04-08T09:33:11;21.90;;;9.20;;
78207;SDS011;67481;50.244;18.288;2023-04-08T09:35:56;17.73;;;6.80;;
78207;SDS011;67481;50.244;18.288;2023-04-08T09:38:43;20.30;;;7.97;;
78207;SDS011;67481;50.244;18.288;2023-04-08T09:41:32;20.13;;;9.20;;
78207;SDS011;67481;50.244;18.288;2023-04-08T09:44:19;20.90;;;8.65;;
78207;SDS011;67481;50.244;18.288;2023-04-08T09:50:00;17.23;;;6.88;;
78207;SDS011;67481;50.244;18.288;2023-04-08T09:52:48;16.63;;;7.63;;
78207;SDS011;67481;50.244;18.288;2023-04-08T09:55:42;16.48;;;6.32;;
78207;SDS011;67481;50.244;18.288;2023-04-08T09:58:28;20.55;;;7.90;;
78207;SDS011;67481;50.244;18.288;2023-04-08T10:01:20;18.67;;;7.38;;
78207;SDS011;67481;50.244;18.288;2023-04-08T10:04:11;16.10;;;6.25;;
78207;SDS011;67481;50.244;18.288;2023-04-08T10:07:03;9.05;;;3.33;;
78207;SDS011;67481;50.244;18.288;2023-04-08T10:09:50;13.95;;;6.47;;
78207;SDS011;67481;50.244;18.288;2023-04-08T10:12:35;17.30;;;7.68;;
78207;SDS011;67481;50.244;18.288;2023-04-08T10:15:25;19.48;;;7.63;;
78207;SDS011;67481;50.244;18.288;2023-04-08T10:20:57;16.90;;;6.60;;
78207;SDS011;67481;50.244;18.288;2023-04-08T10:23:55;8.13;;;3.42;;
78207;SDS011;67481;50.244;18.288;2023-04-08T10:26:44;12.77;;;5.97;;
78207;SDS011;67481;50.244;18.288;2023-04-08T10:29:30;16.00;;;6.05;;
78207;SDS011;67481;50.244;18.288;2023-04-08T10:32:28;16.80;;;6.43;;
78207;SDS011;67481;50.244;18.288;2023-04-08T10:35:14;11.73;;;4.95;;
78207;SDS011;67481;50.244;18.288;2023-04-08T10:38:00;13.40;;;4.72;;
78207;SDS011;67481;50.244;18.288;2023-04-08T10:40:46;18.63;;;6.47;;
78207;SDS011;67481;50.244;18.288;2023-04-08T10:43:32;12.43;;;5.20;;
78207;SDS011;67481;50.244;18.288;2023-04-08T10:46:19;9.82;;;3.03;;
78207;SDS011;67481;50.244;18.288;2023-04-08T10:49:04;10.07;;;4.10;;
78207;SDS011;67481;50.244;18.288;2023-04-08T10:51:50;13.43;;;6.28;;
78207;SDS011;67481;50.244;18.288;2023-04-08T10:54:36;13.80;;;5.05;;
78207;SDS011;67481;50.244;18.288;2023-04-08T10:57:23;11.10;;;4.28;;
78207;SDS011;67481;50.244;18.288;2023-04-08T11:00:10;13.85;;;5.32;;
78207;SDS011;67481;50.244;18.288;2023-04-08T11:02:59;9.75;;;4.63;;
78207;SDS011;67481;50.244;18.288;2023-04-08T11:05:45;15.70;;;6.65;;
78207;SDS011;67481;50.244;18.288;2023-04-08T11:08:31;14.82;;;6.80;;
78207;SDS011;67481;50.244;18.288;2023-04-08T11:11:17;8.77;;;3.38;;
78207;SDS011;67481;50.244;18.288;2023-04-08T11:14:03;14.20;;;6.57;;
78207;SDS011;67481;50.244;18.288;2023-04-08T11:16:50;14.25;;;4.78;;
78207;SDS011;67481;50.244;18.288;2023-04-08T11:19:35;13.38;;;6.07;;
78207;SDS011;67481;50.244;18.288;2023-04-08T11:22:21;12.68;;;4.70;;
78207;SDS011;67481;50.244;18.288;2023-04-08T11:25:07;14.73;;;6.35;;
78207;SDS011;67481;50.244;18.288;2023-04-08T11:27:54;11.73;;;4.93;;
78207;SDS011;67481;50.244;18.288;2023-04-08T11:30:40;13.23;;;5.80;;
78207;SDS011;67481;50.244;18.288;2023-04-08T11:33:26;12.02;;;4.22;;
78207;SDS011;67481;50.244;18.288;2023-04-08T11:36:18;14.48;;;6.22;;
78207;SDS011;67481;50.244;18.288;2023-04-08T11:39:06;11.43;;;4.95;;
78207;SDS011;67481;50.244;18.288;2023-04-08T11:41:53;16.17;;;6.28;;
78207;SDS011;67481;50.244;18.288;2023-04-08T11:44:39;11.30;;;4.63;;
78207;SDS011;67481;50.244;18.288;2023-04-08T11:47:31;17.83;;;6.13;;
78207;SDS011;67481;50.244;18.288;2023-04-08T11:50:23;17.17;;;6.95;;
78207;SDS011;67481;50.244;18.288;2023-04-08T11:53:17;19.65;;;8.00;;
78207;SDS011;67481;50.244;18.288;2023-04-08T11:59:01;16.73;;;7.60;;
78207;SDS011;67481;50.244;18.288;2023-04-08T12:01:52;12.90;;;5.90;;
78207;SDS011;67481;50.244;18.288;2023-04-08T12:04:38;14.65;;;5.63;;
78207;SDS011;67481;50.244;18.288;2023-04-08T12:07:24;18.13;;;8.48;;
78207;SDS011;67481;50.244;18.288;2023-04-08T12:10:11;17.02;;;6.90;;
78207;SDS011;67481;50.244;18.288;2023-04-08T12:12:57;13.90;;;5.07;;
78207;SDS011;67481;50.244;18.288;2023-04-08T12:15:44;12.35;;;4.93;;
78207;SDS011;67481;50.244;18.288;2023-04-08T12:18:30;12.43;;;6.00;;
78207;SDS011;67481;50.244;18.288;2023-04-08T12:21:15;19.52;;;7.82;;
78207;SDS011;67481;50.244;18.288;2023-04-08T12:24:01;14.48;;;6.78;;
78207;SDS011;67481;50.244;18.288;2023-04-08T12:26:47;18.00;;;7.80;;
78207;SDS011;67481;50.244;18.288;2023-04-08T12:29:33;15.15;;;6.72;;
78207;SDS011;67481;50.244;18.288;2023-04-08T12:32:19;16.10;;;6.75;;
78207;SDS011;67481;50.244;18.288;2023-04-08T12:35:07;10.68;;;5.03;;
78207;SDS011;67481;50.244;18.288;2023-04-08T12:37:53;12.85;;;5.22;;
78207;SDS011;67481;50.244;18.288;2023-04-08T12:40:42;16.73;;;6.40;;
78207;SDS011;67481;50.244;18.288;2023-04-08T12:43:27;12.85;;;5.60;;
78207;SDS011;67481;50.244;18.288;2023-04-08T12:46:13;24.45;;;10.15;;
78207;SDS011;67481;50.244;18.288;2023-04-08T12:49:00;21.85;;;7.40;;
78207;SDS011;67481;50.244;18.288;2023-04-08T12:51:52;17.17;;;7.88;;
78207;SDS011;67481;50.244;18.288;2023-04-08T12:54:38;15.18;;;6.07;;
78207;SDS011;67481;50.244;18.288;2023-04-08T12:57:24;16.88;;;7.45;;
78207;SDS011;67481;50.244;18.288;2023-04-08T13:00:10;48.83;;;16.55;;
78207;SDS011;67481;50.244;18.288;2023-04-08T13:02:56;15.30;;;6.70;;
78207;SDS011;67481;50.244;18.288;2023-04-08T13:05:42;17.30;;;7.30;;
78207;SDS011;67481;50.244;18.288;2023-04-08T13:08:28;22.70;;;9.23;;
78207;SDS011;67481;50.244;18.288;2023-04-08T13:11:14;18.33;;;7.45;;
78207;SDS011;67481;50.244;18.288;2023-04-08T13:13:59;17.00;;;7.72;;
78207;SDS011;67481;50.244;18.288;2023-04-08T13:16:50;25.80;;;9.65;;
78207;SDS011;67481;50.244;18.288;2023-04-08T13:22:48;19.90;;;8.05;;
78207;SDS011;67481;50.244;18.288;2023-04-08T13:25:35;21.48;;;9.70;;
78207;SDS011;67481;50.244;18.288;2023-04-08T13:28:20;25.98;;;10.10;;
78207;SDS011;67481;50.244;18.288;2023-04-08T13:31:06;14.18;;;5.95;;
78207;SDS011;67481;50.244;18.288;2023-04-08T13:33:53;24.70;;;10.48;;
78207;SDS011;67481;50.244;18.288;2023-04-08T13:36:42;26.73;;;10.75;;
78207;SDS011;67481;50.244;18.288;2023-04-08T13:39:42;24.90;;;10.13;;
78207;SDS011;67481;50.244;18.288;2023-04-08T13:42:29;25.88;;;9.85;;
78207;SDS011;67481;50.244;18.288;2023-04-08T13:45:18;16.13;;;7.45;;
78207;SDS011;67481;50.244;18.288;2023-04-08T13:48:05;24.58;;;9.43;;
78207;SDS011;67481;50.244;18.288;2023-04-08T13:50:50;24.55;;;10.13;;
78207;SDS011;67481;50.244;18.288;2023-04-08T13:53:37;20.50;;;8.73;;
78207;SDS011;67481;50.244;18.288;2023-04-08T13:56:23;25.02;;;10.20;;
78207;SDS011;67481;50.244;18.288;2023-04-08T13:59:28;19.63;;;7.60;;
78207;SDS011;67481;50.244;18.288;2023-04-08T14:02:16;23.92;;;8.73;;
78207;SDS011;67481;50.244;18.288;2023-04-08T14:05:02;24.13;;;10.75;;
78207;SDS011;67481;50.244;18.288;2023-04-08T14:07:52;26.27;;;10.73;;
78207;SDS011;67481;50.244;18.288;2023-04-08T14:10:39;22.95;;;9.82;;
78207;SDS011;67481;50.244;18.288;2023-04-08T14:13:33;20.60;;;9.65;;
78207;SDS011;67481;50.244;18.288;2023-04-08T14:16:27;20.73;;;9.60;;
78207;SDS011;67481;50.244;18.288;2023-04-08T14:19:18;24.17;;;10.25;;
78207;SDS011;67481;50.244;18.288;2023-04-08T14:24:51;26.02;;;11.02;;
78207;SDS011;67481;50.244;18.288;2023-04-08T14:27:38;23.52;;;10.70;;
78207;SDS011;67481;50.244;18.288;2023-04-08T14:30:42;27.17;;;10.57;;
78207;SDS011;67481;50.244;18.288;2023-04-08T14:33:47;13.27;;;6.30;;
78207;SDS011;67481;50.244;18.288;2023-04-08T14:36:34;19.88;;;9.55;;
78207;SDS011;67481;50.244;18.288;2023-04-08T14:42:13;21.15;;;8.85;;
78207;SDS011;67481;50.244;18.288;2023-04-08T14:45:01;22.25;;;8.95;;
78207;SDS011;67481;50.244;18.288;2023-04-08T14:47:48;20.95;;;9.18;;
78207;SDS011;67481;50.244;18.288;2023-04-08T14:50:34;22.75;;;9.32;;
78207;SDS011;67481;50.244;18.288;2023-04-08T14:53:20;23.00;;;9.48;;
78207;SDS011;67481;50.244;18.288;2023-04-08T14:56:06;18.85;;;8.07;;
78207;SDS011;67481;50.244;18.288;2023-04-08T14:58:52;18.35;;;7.72;;
78207;SDS011;67481;50.244;18.288;2023-04-08T15:01:38;20.92;;;9.00;;
78207;SDS011;67481;50.244;18.288;2023-04-08T15:04:25;19.08;;;7.95;;
78207;SDS011;67481;50.244;18.288;2023-04-08T15:07:11;18.27;;;7.80;;
78207;SDS011;67481;50.244;18.288;2023-04-08T15:09:57;17.52;;;6.47;;
78207;SDS011;67481;50.244;18.288;2023-04-08T15:12:43;15.20;;;6.60;;
78207;SDS011;67481;50.244;18.288;2023-04-08T15:15:28;17.58;;;8.18;;
78207;SDS011;67481;50.244;18.288;2023-04-08T15:18:13;19.83;;;7.88;;
78207;SDS011;67481;50.244;18.288;2023-04-08T15:20:59;19.48;;;7.43;;
78207;SDS011;67481;50.244;18.288;2023-04-08T15:23:44;19.15;;;7.95;;
78207;SDS011;67481;50.244;18.288;2023-04-08T15:26:30;19.40;;;6.88;;
78207;SDS011;67481;50.244;18.288;2023-04-08T15:29:15;12.45;;;4.30;;
78207;SDS011;67481;50.244;18.288;2023-04-08T15:32:01;21.95;;;8.77;;
78207;SDS011;67481;50.244;18.288;2023-04-08T15:34:47;18.23;;;7.57;;
78207;SDS011;67481;50.244;18.288;2023-04-08T15:37:35;18.85;;;7.88;;
78207;SDS011;67481;50.244;18.288;2023-04-08T15:40:21;16.33;;;7.40;;
78207;SDS011;67481;50.244;18.288;2023-04-08T15:43:07;18.95;;;7.43;;
78207;SDS011;67481;50.244;18.288;2023-04-08T15:45:54;19.23;;;7.15;;
78207;SDS011;67481;50.244;18.288;2023-04-08T15:48:40;21.35;;;9.93;;
78207;SDS011;67481;50.244;18.288;2023-04-08T15:51:26;16.92;;;6.72;;
78207;SDS011;67481;50.244;18.288;2023-04-08T15:54:12;47.08;;;19.83;;
78207;SDS011;67481;50.244;18.288;2023-04-08T15:56:58;23.95;;;10.63;;
78207;SDS011;67481;50.244;18.288;2023-04-08T15:59:43;28.52;;;12.32;;
78207;SDS011;67481;50.244;18.288;2023-04-08T16:02:29;50.95;;;21.15;;
78207;SDS011;67481;50.244;18.288;2023-04-08T16:05:14;35.05;;;15.07;;
78207;SDS011;67481;50.244;18.288;2023-04-08T16:08:00;22.35;;;9.68;;
78207;SDS011;67481;50.244;18.288;2023-04-08T16:10:46;18.02;;;7.45;;
78207;SDS011;67481;50.244;18.288;2023-04-08T16:13:32;22.65;;;9.30;;
78207;SDS011;67481;50.244;18.288;2023-04-08T16:16:18;27.67;;;10.68;;
78207;SDS011;67481;50.244;18.288;2023-04-08T16:19:04;26.58;;;11.13;;
78207;SDS011;67481;50.244;18.288;2023-04-08T16:21:50;30.92;;;12.73;;
78207;SDS011;67481;50.244;18.288;2023-04-08T16:24:36;24.10;;;11.30;;
78207;SDS011;67481;50.244;18.288;2023-04-08T16:27:24;27.20;;;12.57;;
78207;SDS011;67481;50.244;18.288;2023-04-08T16:30:09;28.10;;;11.45;;
78207;SDS011;67481;50.244;18.288;2023-04-08T16:32:56;26.30;;;12.02;;